createdAt,value
2019-04-07T00:01:55.957Z,42.60
2019-04-07T00:04:27.225Z,42.90
2019-04-07T00:06:59.841Z,42.17
2019-04-07T00:09:28.780Z,43.37
2019-04-07T00:11:57.686Z,42.50
2019-04-07T00:14:27.208Z,44.17
2019-04-07T00:16:58.666Z,42.93
2019-04-07T00:19:27.604Z,43.50
2019-04-07T00:21:59.386Z,41.93
2019-04-07T00:24:28.337Z,44.47
2019-04-07T00:27:00.242Z,42.23
2019-04-07T00:29:29.137Z,43.23
2019-04-07T00:32:00.863Z,43.43
2019-04-07T00:34:32.436Z,43.13
2019-04-07T00:37:01.395Z,43.90
2019-04-07T00:39:32.276Z,41.93
2019-04-07T00:42:01.804Z,43.77
2019-04-07T00:44:34.357Z,43.47
2019-04-07T00:47:04.094Z,43.43
2019-04-07T00:49:33.138Z,43.23
2019-04-07T00:52:03.882Z,44.03
2019-04-07T00:54:32.889Z,44.00
2019-04-07T00:57:01.960Z,45.10
2019-04-07T00:59:33.890Z,45.50
2019-04-07T01:02:02.835Z,45.30
2019-04-07T01:04:31.904Z,46.40
2019-04-07T01:07:02.857Z,46.30
2019-04-07T01:09:34.444Z,44.17
2019-04-07T01:12:04.021Z,44.87
2019-04-07T01:14:33.590Z,46.03
2019-04-07T01:17:06.127Z,44.80
2019-04-07T01:19:35.368Z,43.37
2019-04-07T01:22:05.462Z,42.77
2019-04-07T01:24:34.459Z,43.70
2019-04-07T01:27:03.907Z,44.83
2019-04-07T01:29:33.231Z,45.03
2019-04-07T01:32:02.248Z,47.03
2019-04-07T01:34:31.545Z,43.93
2019-04-07T01:37:02.049Z,45.47
2019-04-07T01:39:34.752Z,46.17
2019-04-07T01:42:24.341Z,46.37
2019-04-07T01:45:11.581Z,46.30
2019-04-07T01:47:58.538Z,47.77
2019-04-07T01:50:45.960Z,48.27
2019-04-07T01:53:33.579Z,49.37
2019-04-07T01:56:12.919Z,48.67
2019-04-07T01:58:56.114Z,49.03
2019-04-07T02:01:27.356Z,47.23
2019-04-07T02:04:04.090Z,47.63
2019-04-07T02:06:37.399Z,46.03
2019-04-07T02:09:12.732Z,44.80
2019-04-07T02:11:46.262Z,45.23
2019-04-07T02:14:16.890Z,47.30
2019-04-07T02:17:02.620Z,48.23
2019-04-07T02:19:33.685Z,49.57
2019-04-07T02:22:13.825Z,48.37
2019-04-07T02:24:57.595Z,49.40
2019-04-07T02:27:28.419Z,50.93
2019-04-07T02:29:59.069Z,51.97
2019-04-07T02:32:46.224Z,52.13
2019-04-07T02:35:20.776Z,51.93
2019-04-07T02:37:52.702Z,52.07
2019-04-07T02:40:42.641Z,52.70
2019-04-07T02:43:30.913Z,50.77
2019-04-07T02:46:04.259Z,51.77
2019-04-07T02:48:50.990Z,49.87
2019-04-07T02:51:33.887Z,50.07
2019-04-07T02:54:07.763Z,50.07
2019-04-07T02:56:47.420Z,51.23
2019-04-07T02:59:20.580Z,48.83
2019-04-07T03:01:52.011Z,51.03
2019-04-07T03:04:44.432Z,50.40
2019-04-07T03:07:24.980Z,49.43
2019-04-07T03:10:12.979Z,50.60
2019-04-07T03:13:01.585Z,52.83
2019-04-07T03:15:41.675Z,53.10
2019-04-07T03:18:15.121Z,51.97
2019-04-07T03:20:45.634Z,52.80
2019-04-07T03:23:32.288Z,52.70
2019-04-07T03:26:15.204Z,52.00
2019-04-07T03:28:55.666Z,51.77
2019-04-07T03:31:29.700Z,53.43
2019-04-07T03:34:06.135Z,55.60
2019-04-07T03:37:09.625Z,53.37
2019-04-07T03:39:19.094Z,54.23
2019-04-07T03:42:01.483Z,52.83
2019-04-07T03:44:37.251Z,54.03
2019-04-07T03:47:14.394Z,53.53
2019-04-07T03:49:45.675Z,53.37
2019-04-07T03:52:26.695Z,51.47
2019-04-07T03:54:59.882Z,52.60
2019-04-07T03:57:36.277Z,53.27
2019-04-07T04:00:10.702Z,52.03
2019-04-07T04:02:46.890Z,52.23
2019-04-07T04:05:17.363Z,52.87
2019-04-07T04:07:47.885Z,55.00
2019-04-07T04:10:27.430Z,55.27
2019-04-07T04:12:58.650Z,54.83
2019-04-07T04:15:31.262Z,55.23
2019-04-07T04:18:03.355Z,52.03
2019-04-07T04:20:35.423Z,51.90
2019-04-07T04:23:04.727Z,53.10
2019-04-07T04:25:34.099Z,52.40
2019-04-07T04:28:03.169Z,55.23
2019-04-07T04:30:32.101Z,53.03
2019-04-07T04:33:04.099Z,55.43
2019-04-07T04:35:33.059Z,54.97
2019-04-07T04:38:05.914Z,54.90
2019-04-07T04:40:37.552Z,54.37
2019-04-07T04:43:06.778Z,54.33
2019-04-07T04:45:36.321Z,52.13
2019-04-07T04:48:06.554Z,51.83
2019-04-07T04:50:35.741Z,51.40
2019-04-07T04:53:04.620Z,50.50
2019-04-07T04:55:33.801Z,51.00
2019-04-07T04:58:02.885Z,49.33
2019-04-07T05:00:32.162Z,49.27
2019-04-07T05:03:02.742Z,48.00
2019-04-07T05:05:34.654Z,46.13
2019-04-07T05:08:05.323Z,46.27
2019-04-07T05:10:34.783Z,46.20
2019-04-07T05:13:04.533Z,45.70
2019-04-07T05:15:34.216Z,45.63
2019-04-07T05:18:06.434Z,44.57
2019-04-07T05:20:35.581Z,44.47
2019-04-07T05:23:05.187Z,45.07
2019-04-07T05:25:34.911Z,44.47
2019-04-07T05:28:04.628Z,44.57
2019-04-07T05:30:33.764Z,43.77
2019-04-07T05:33:05.651Z,44.53
2019-04-07T05:35:35.081Z,43.43
2019-04-07T05:38:06.599Z,42.30
2019-04-07T05:40:34.666Z,43.87
2019-04-07T05:43:07.124Z,42.10
2019-04-07T05:45:37.478Z,44.23
2019-04-07T05:48:06.585Z,43.50
2019-04-07T05:50:36.033Z,43.00
2019-04-07T05:53:06.820Z,42.43
2019-04-07T05:55:35.817Z,41.80
2019-04-07T05:58:07.234Z,39.83
2019-04-07T06:00:35.336Z,41.93
2019-04-07T06:03:06.651Z,42.83
2019-04-07T06:05:35.657Z,41.37
2019-04-07T06:08:21.277Z,41.67
2019-04-07T06:10:35.766Z,40.20
2019-04-07T06:13:05.344Z,39.83
2019-04-07T06:15:35.677Z,39.97
2019-04-07T06:18:05.132Z,37.67
2019-04-07T06:20:34.385Z,39.57
2019-04-07T06:23:04.922Z,38.77
2019-04-07T06:25:38.125Z,39.37
2019-04-07T06:28:05.408Z,38.37
2019-04-07T06:30:36.238Z,37.50
2019-04-07T06:33:07.287Z,38.23
2019-04-07T06:35:36.536Z,37.57
2019-04-07T06:38:11.125Z,37.60
2019-04-07T06:40:40.466Z,36.27
2019-04-07T06:43:09.540Z,37.87
2019-04-07T06:45:40.037Z,37.23
2019-04-07T06:48:11.340Z,38.37
2019-04-07T06:50:54.795Z,37.97
2019-04-07T06:53:23.532Z,36.80
2019-04-07T06:55:58.444Z,37.03
2019-04-07T06:58:26.625Z,37.70
2019-04-07T07:00:58.327Z,37.00
2019-04-07T07:03:49.694Z,37.27
2019-04-07T07:06:20.275Z,37.50
2019-04-07T07:08:54.198Z,37.97
2019-04-07T07:11:31.207Z,39.27
2019-04-07T07:14:06.404Z,39.47
2019-04-07T07:16:55.318Z,38.03
2019-04-07T07:19:32.832Z,37.03
2019-04-07T07:22:16.602Z,36.50
2019-04-07T07:24:47.287Z,37.70
2019-04-07T07:27:16.517Z,36.13
2019-04-07T07:29:47.289Z,36.40
2019-04-07T07:32:16.036Z,34.60
2019-04-07T07:34:44.979Z,34.60
2019-04-07T07:37:13.873Z,35.47
2019-04-07T07:39:45.097Z,36.07
2019-04-07T07:42:13.765Z,38.40
2019-04-07T07:44:42.856Z,38.43
2019-04-07T07:47:11.972Z,37.10
2019-04-07T07:49:41.492Z,35.73
2019-04-07T07:52:11.609Z,36.60
2019-04-07T07:54:41.066Z,36.07
2019-04-07T07:57:10.034Z,36.63
2019-04-07T07:59:40.188Z,35.87
2019-04-07T08:02:09.807Z,36.40
2019-04-07T08:04:38.817Z,36.07
2019-04-07T08:07:10.819Z,35.20
2019-04-07T08:09:38.295Z,34.50
2019-04-07T08:12:07.300Z,35.23
2019-04-07T08:14:37.068Z,34.40
2019-04-07T08:17:06.138Z,33.50
2019-04-07T08:19:40.815Z,34.80
2019-04-07T08:22:08.744Z,33.30
2019-04-07T08:24:37.790Z,34.93
2019-04-07T08:27:07.314Z,36.37
2019-04-07T08:29:37.562Z,34.93
2019-04-07T08:32:07.642Z,34.93
2019-04-07T08:34:37.227Z,34.47
2019-04-07T08:37:06.261Z,34.90
2019-04-07T08:39:37.484Z,35.70
2019-04-07T08:42:11.023Z,36.13
2019-04-07T08:44:38.650Z,35.67
2019-04-07T08:47:10.737Z,36.53
2019-04-07T08:49:38.151Z,37.77
2019-04-07T08:52:09.787Z,37.80
2019-04-07T08:54:37.641Z,35.07
2019-04-07T08:57:07.098Z,35.53
2019-04-07T08:59:39.904Z,36.30
2019-04-07T09:02:07.585Z,36.30
2019-04-07T09:04:36.716Z,38.20
2019-04-07T09:07:05.670Z,42.10
2019-04-07T09:09:40.378Z,38.53
2019-04-07T09:12:08.166Z,35.80
2019-04-07T09:14:39.456Z,37.57
2019-04-07T09:17:30.725Z,35.53
2019-04-07T09:20:10.682Z,36.83
2019-04-07T09:22:57.244Z,37.27
2019-04-07T09:25:32.042Z,37.53
2019-04-07T09:28:23.987Z,37.73
2019-04-07T09:30:57.437Z,36.77
2019-04-07T09:33:33.697Z,38.30
2019-04-07T09:36:12.422Z,35.80
2019-04-07T09:39:01.852Z,37.73
2019-04-07T09:41:44.054Z,37.43
2019-04-07T09:44:27.828Z,36.77
2019-04-07T09:47:16.358Z,35.83
2019-04-07T09:49:56.166Z,37.37
2019-04-07T09:52:30.508Z,36.10
2019-04-07T09:55:09.167Z,35.53
2019-04-07T09:57:40.863Z,35.57
2019-04-07T10:00:22.890Z,35.63
2019-04-07T10:02:53.023Z,36.70
2019-04-07T10:05:26.229Z,36.10
2019-04-07T10:08:13.889Z,36.80
2019-04-07T10:10:57.244Z,35.57
2019-04-07T10:13:45.252Z,36.30
2019-04-07T10:16:36.416Z,37.63
2019-04-07T10:19:15.746Z,36.80
2019-04-07T10:22:03.227Z,37.00
2019-04-07T10:24:52.229Z,36.23
2019-04-07T10:27:33.034Z,34.93
2019-04-07T10:30:06.782Z,33.77
2019-04-07T10:32:47.690Z,34.27
2019-04-07T10:35:33.520Z,34.33
2019-04-07T10:38:22.209Z,33.27
2019-04-07T10:41:10.898Z,33.47
2019-04-07T10:43:57.835Z,34.13
2019-04-07T10:46:29.133Z,32.23
2019-04-07T10:49:00.344Z,33.40
2019-04-07T10:51:31.965Z,33.60
2019-04-07T10:54:15.662Z,33.57
2019-04-07T10:56:46.354Z,33.90
2019-04-07T10:59:17.477Z,33.03
2019-04-07T11:02:07.033Z,32.20
2019-04-07T11:04:37.733Z,34.07
2019-04-07T11:07:11.507Z,33.27
2019-04-07T11:09:42.628Z,32.57
2019-04-07T11:12:30.426Z,33.43
2019-04-07T11:15:15.740Z,32.93
2019-04-07T11:18:03.086Z,32.90
2019-04-07T11:20:33.830Z,34.50
2019-04-07T11:23:13.600Z,34.53
2019-04-07T11:26:00.844Z,31.43
2019-04-07T11:28:31.828Z,33.43
2019-04-07T11:31:02.426Z,33.33
2019-04-07T11:33:36.199Z,32.53
2019-04-07T11:36:10.639Z,32.57
2019-04-07T11:38:44.194Z,32.17
2019-04-07T11:41:14.750Z,32.70
2019-04-07T11:44:01.913Z,31.80
2019-04-07T11:46:33.004Z,31.23
2019-04-07T11:49:13.462Z,31.70
2019-04-07T11:51:44.353Z,30.23
2019-04-07T11:54:33.927Z,30.17
2019-04-07T11:57:06.958Z,30.50
2019-04-07T11:59:37.796Z,31.57
2019-04-07T12:02:08.993Z,31.40
2019-04-07T12:04:40.397Z,30.73
2019-04-07T12:07:14.489Z,31.47
2019-04-07T12:09:54.247Z,31.53
2019-04-07T12:12:42.004Z,30.77
2019-04-07T12:15:30.212Z,31.40
2019-04-07T12:18:04.370Z,29.83
2019-04-07T12:20:45.120Z,30.17
2019-04-07T12:23:23.331Z,29.07
2019-04-07T12:25:52.827Z,31.03
2019-04-07T12:28:26.709Z,29.30
2019-04-07T12:31:00.102Z,30.83
2019-04-07T12:33:38.539Z,29.50
2019-04-07T12:36:11.826Z,28.53
2019-04-07T12:39:00.442Z,29.17
2019-04-07T12:41:47.631Z,29.47
2019-04-07T12:44:21.866Z,30.40
2019-04-07T12:47:09.172Z,29.43
2019-04-07T12:49:46.113Z,29.13
2019-04-07T12:52:34.190Z,29.37
2019-04-07T12:55:20.931Z,28.43
2019-04-07T12:57:58.217Z,28.63
2019-04-07T13:00:55.703Z,28.07
2019-04-07T13:03:28.888Z,28.47
2019-04-07T13:06:06.257Z,26.47
2019-04-07T13:08:34.919Z,28.20
2019-04-07T13:11:10.633Z,29.33
2019-04-07T13:13:49.471Z,27.80
2019-04-07T13:16:25.336Z,28.20
2019-04-07T13:19:02.251Z,27.63
2019-04-07T13:21:34.048Z,28.67
2019-04-07T13:24:11.628Z,27.10
2019-04-07T13:26:52.119Z,26.10
2019-04-07T13:29:32.379Z,24.73
2019-04-07T13:32:20.652Z,24.80
2019-04-07T13:35:01.257Z,26.27
2019-04-07T13:37:33.632Z,26.63
2019-04-07T13:40:05.019Z,26.13
2019-04-07T13:42:48.094Z,29.00
2019-04-07T13:45:28.980Z,27.73
2019-04-07T13:48:03.475Z,26.47
2019-04-07T13:50:37.114Z,24.47
2019-04-07T13:53:07.721Z,27.33
2019-04-07T13:55:58.263Z,24.33
2019-04-07T13:58:35.331Z,26.97
2019-04-07T14:01:07.396Z,29.13
2019-04-07T14:03:44.446Z,25.17
2019-04-07T14:06:16.186Z,25.30
2019-04-07T14:08:56.985Z,28.07
2019-04-07T14:11:31.803Z,24.07
2019-04-07T14:14:18.989Z,23.70
2019-04-07T14:17:06.275Z,22.53
2019-04-07T14:19:37.361Z,24.23
2019-04-07T14:22:17.631Z,24.73
2019-04-07T14:25:04.426Z,25.40
2019-04-07T14:27:40.557Z,25.40
2019-04-07T14:30:28.029Z,24.53
2019-04-07T14:33:02.164Z,24.40
2019-04-07T14:35:42.147Z,23.20
2019-04-07T14:38:13.592Z,23.77
2019-04-07T14:40:53.076Z,22.23
2019-04-07T14:43:35.130Z,21.03
2019-04-07T14:46:04.457Z,21.27
2019-04-07T14:48:47.964Z,21.73
2019-04-07T14:51:19.560Z,21.17
2019-04-07T14:53:54.080Z,22.10
2019-04-07T14:56:34.170Z,21.40
2019-04-07T14:59:21.930Z,21.40
2019-04-07T15:02:00.474Z,20.73
2019-04-07T15:04:30.261Z,22.63
2019-04-07T15:07:10.063Z,22.77
2019-04-07T15:09:41.374Z,24.07
2019-04-07T15:12:18.532Z,23.90
2019-04-07T15:14:42.725Z,25.20
2019-04-07T15:17:12.054Z,26.50
2019-04-07T15:19:41.155Z,27.00
2019-04-07T15:22:10.081Z,27.00
2019-04-07T15:24:39.579Z,27.97
2019-04-07T15:27:08.648Z,29.00
2019-04-07T15:29:41.375Z,29.03
2019-04-07T15:32:08.144Z,29.20
2019-04-07T15:34:39.556Z,28.50
2019-04-07T15:37:07.872Z,26.20
2019-04-07T15:39:37.457Z,25.93
2019-04-07T15:42:09.328Z,25.33
2019-04-07T15:44:39.645Z,28.13
2019-04-07T15:47:09.270Z,24.20
2019-04-07T15:49:38.785Z,24.40
2019-04-07T15:52:10.043Z,23.17
2019-04-07T15:54:39.135Z,22.27
2019-04-07T15:57:08.919Z,21.03
2019-04-07T15:59:39.686Z,25.70
2019-04-07T16:02:11.214Z,24.23
2019-04-07T16:04:40.731Z,24.27
2019-04-07T16:07:10.292Z,23.93
2019-04-07T16:09:49.419Z,26.30
2019-04-07T16:12:10.036Z,24.90
2019-04-07T16:14:40.272Z,26.70
2019-04-07T16:17:10.774Z,26.10
2019-04-07T16:19:43.092Z,23.80
2019-04-07T16:22:12.588Z,23.67
2019-04-07T16:24:41.648Z,23.43
2019-04-07T16:27:10.982Z,24.10
2019-04-07T16:29:40.909Z,23.97
2019-04-07T16:32:11.304Z,22.67
2019-04-07T16:34:42.180Z,22.90
2019-04-07T16:37:11.642Z,23.77
2019-04-07T16:39:42.575Z,23.63
2019-04-07T16:42:14.099Z,21.90
2019-04-07T16:44:44.122Z,21.33
2019-04-07T16:47:20.892Z,20.73
2019-04-07T16:49:46.622Z,20.37
2019-04-07T16:52:14.217Z,20.03
2019-04-07T16:54:44.608Z,20.93
2019-04-07T16:57:13.884Z,21.33
2019-04-07T16:59:43.562Z,22.03
2019-04-07T17:02:14.472Z,21.70
2019-04-07T17:04:43.149Z,20.10
2019-04-07T17:07:15.327Z,20.30
2019-04-07T17:09:42.664Z,20.20
2019-04-07T17:12:12.440Z,20.80
2019-04-07T17:14:42.232Z,20.50
2019-04-07T17:17:11.198Z,20.97
2019-04-07T17:19:41.747Z,21.07
2019-04-07T17:22:13.242Z,21.07
2019-04-07T17:24:42.681Z,22.93
2019-04-07T17:27:11.877Z,21.90
2019-04-07T17:29:41.560Z,23.90
2019-04-07T17:32:10.945Z,25.03
2019-04-07T17:34:41.748Z,26.87
2019-04-07T17:37:10.735Z,25.83
2019-04-07T17:39:41.953Z,27.50
2019-04-07T17:42:12.757Z,27.10
2019-04-07T17:44:49.156Z,27.17
2019-04-07T17:47:17.945Z,26.70
2019-04-07T17:49:48.487Z,25.63
2019-04-07T17:52:27.887Z,26.60
2019-04-07T17:55:10.650Z,26.13
2019-04-07T17:57:54.731Z,24.37
2019-04-07T18:00:37.383Z,22.87
2019-04-07T18:03:11.621Z,24.70
2019-04-07T18:06:00.220Z,24.97
2019-04-07T18:08:34.294Z,27.57
2019-04-07T18:11:23.221Z,28.80
2019-04-07T18:13:58.642Z,28.33
2019-04-07T18:16:40.791Z,29.80
2019-04-07T18:19:20.817Z,31.20
2019-04-07T18:21:55.052Z,29.50
2019-04-07T18:24:34.046Z,29.80
2019-04-07T18:27:23.246Z,27.67
2019-04-07T18:29:59.664Z,29.50
2019-04-07T18:32:28.960Z,32.23
2019-04-07T18:35:11.571Z,33.57
2019-04-07T18:37:44.563Z,31.37
2019-04-07T18:40:18.072Z,30.37
2019-04-07T18:42:57.800Z,28.93
2019-04-07T18:45:37.327Z,25.93
2019-04-07T18:48:14.693Z,25.63
2019-04-07T18:51:01.628Z,24.83
2019-04-07T18:53:50.453Z,26.27
2019-04-07T18:56:23.638Z,29.67
2019-04-07T18:59:10.434Z,30.73
2019-04-07T19:01:57.831Z,35.47
2019-04-07T19:04:30.284Z,34.03
2019-04-07T19:07:09.818Z,35.13
2019-04-07T19:09:43.877Z,35.30
2019-04-07T19:12:23.232Z,35.37
2019-04-07T19:15:02.476Z,34.03
2019-04-07T19:17:32.643Z,32.90
2019-04-07T19:20:10.864Z,32.20
2019-04-07T19:22:41.531Z,33.67
2019-04-07T19:25:21.538Z,34.57
2019-04-07T19:27:54.130Z,33.90
2019-04-07T19:30:26.553Z,32.67
2019-04-07T19:33:12.569Z,33.27
2019-04-07T19:35:49.818Z,34.30
2019-04-07T19:38:32.499Z,33.70
2019-04-07T19:41:12.032Z,33.73
2019-04-07T19:43:44.448Z,35.23
2019-04-07T19:46:14.710Z,36.97
2019-04-07T19:48:49.044Z,36.83
2019-04-07T19:51:32.046Z,37.30
2019-04-07T19:54:14.510Z,38.20
2019-04-07T19:56:46.472Z,37.37
2019-04-07T19:59:39.335Z,38.97
2019-04-07T20:02:13.229Z,36.77
2019-04-07T20:04:52.452Z,36.23
2019-04-07T20:07:35.231Z,35.70
2019-04-07T20:10:08.647Z,36.47
2019-04-07T20:12:48.251Z,36.83
2019-04-07T20:15:29.682Z,35.83
2019-04-07T20:18:08.413Z,37.27
2019-04-07T20:20:50.643Z,35.17
2019-04-07T20:23:33.166Z,33.20
2019-04-07T20:26:11.767Z,32.07
2019-04-07T20:28:52.034Z,32.03
2019-04-07T20:31:23.887Z,33.93
2019-04-07T20:34:05.770Z,31.77
2019-04-07T20:36:35.967Z,31.47
2019-04-07T20:39:09.371Z,30.10
2019-04-07T20:41:58.814Z,30.17
2019-04-07T20:44:34.068Z,28.87
2019-04-07T20:47:10.322Z,28.23
2019-04-07T20:49:48.212Z,26.43
2019-04-07T20:52:22.293Z,26.53
2019-04-07T20:55:08.597Z,25.83
2019-04-07T20:58:10.300Z,26.67
2019-04-07T21:00:28.527Z,24.67
2019-04-07T21:03:19.380Z,25.93
2019-04-07T21:05:46.241Z,26.13
2019-04-07T21:08:35.647Z,26.00
2019-04-07T21:11:09.172Z,27.33
2019-04-07T21:13:56.668Z,27.27
2019-04-07T21:16:29.468Z,28.10
2019-04-07T21:19:05.527Z,27.30
2019-04-07T21:21:34.928Z,27.73
2019-04-07T21:24:18.230Z,27.57
2019-04-07T21:26:58.119Z,27.67
2019-04-07T21:29:38.597Z,27.77
2019-04-07T21:32:18.686Z,29.17
2019-04-07T21:34:56.194Z,29.90
2019-04-07T21:37:46.845Z,29.50
2019-04-07T21:40:19.794Z,29.33
2019-04-07T21:43:07.372Z,30.57
2019-04-07T21:45:43.674Z,29.40
2019-04-07T21:48:11.667Z,29.13
2019-04-07T21:50:48.319Z,27.53
2019-04-07T21:53:30.279Z,29.37
2019-04-07T21:56:14.162Z,28.93
2019-04-07T21:58:47.453Z,28.57
2019-04-07T22:01:21.205Z,28.70
2019-04-07T22:03:54.769Z,29.17
2019-04-07T22:06:26.549Z,29.53
2019-04-07T22:09:14.673Z,27.90
2019-04-07T22:11:44.564Z,27.60
2019-04-07T22:14:14.658Z,28.60
2019-04-07T22:16:47.097Z,27.63
2019-04-07T22:19:16.669Z,28.87
2019-04-07T22:21:46.460Z,27.77
2019-04-07T22:24:15.798Z,28.83
2019-04-07T22:26:49.211Z,29.70
2019-04-07T22:29:16.120Z,30.03
2019-04-07T22:31:47.789Z,28.57
2019-04-07T22:34:16.912Z,27.80
2019-04-07T22:36:47.894Z,27.13
2019-04-07T22:39:16.395Z,28.00
2019-04-07T22:41:46.174Z,28.20
2019-04-07T22:44:15.531Z,27.83
2019-04-07T22:46:48.071Z,29.60
2019-04-07T22:49:15.593Z,28.50
2019-04-07T22:51:47.064Z,27.90
2019-04-07T22:54:15.225Z,27.43
2019-04-07T22:56:46.823Z,25.93
2019-04-07T22:59:15.763Z,26.93
2019-04-07T23:01:44.661Z,26.13
2019-04-07T23:04:16.549Z,26.30
2019-04-07T23:06:45.454Z,27.00
2019-04-07T23:09:14.391Z,26.13
2019-04-07T23:11:44.757Z,24.67
2019-04-07T23:14:16.432Z,25.20
2019-04-07T23:16:45.326Z,23.33
2019-04-07T23:19:14.355Z,23.43
2019-04-07T23:21:43.359Z,22.97
2019-04-07T23:24:14.992Z,22.60
2019-04-07T23:26:44.644Z,21.93
2019-04-07T23:29:17.641Z,20.07
2019-04-07T23:31:47.203Z,18.20
2019-04-07T23:34:16.969Z,16.03
2019-04-07T23:36:46.084Z,14.87
2019-04-07T23:39:15.290Z,14.17
2019-04-07T23:41:47.068Z,12.97
2019-04-07T23:44:16.142Z,12.13
2019-04-07T23:46:45.313Z,11.13
2019-04-07T23:49:15.151Z,12.10
2019-04-07T23:51:44.151Z,10.73
2019-04-07T23:54:14.404Z,9.17
2019-04-07T23:56:44.901Z,9.73
2019-04-07T23:59:16.912Z,9.30
